Alba, TX

5:15 PM CDT on March 31, 2015 (GMT -0500)
APRSWXNET | | Change Station
CLOSE
Current Station
Personal Weather Station
Location: Emory, TX
Elevation: 445 ft
Nearby Weather Stations

Elev 445 ft 32.90 °N, 95.70 °W | Updated 33 minutes ago

Overcast
Overcast
82 °F
Feels Like 85 °F
N
5
Wind Variable Wind from SSW
Gusts 13.0 mph

Today
High -- | Low -- °F
--% Chance of Precip.
Yesterday
High -- | Low -- °F
Precip. -- in
7:12 AM 7:41 PM
Waxing Gibbous, 89% visible
Pressure 29.93 in
Visibility 9.0 miles
Clouds Scattered Clouds 3300 ft
Heat Index 85 °F
Dew Point 67 °F
Humidity 61%
Rainfall in
Snow Depth Not available.
UV 3 out of 12
Pollen 11.60 out of 12
Air Quality Not available.
Flu Activity Not available.
METAR KJDD 312155Z AUTO 22006KT 9SM SCT033 26/17 A2993 RMK AO2

More Conditions Fewer Conditions

Pressure 29.93 in
Visibility 9.0 miles
Clouds Scattered Clouds 3300 ft
Heat Index 85 °F
Dew Point 67 °F
Humidity 61%
Rainfall in
Snow Depth Not available.
UV 3 out of 12
Pollen 11.60 out of 12
Air Quality Not available.
Flu Activity Not available.
METAR KJDD 312155Z AUTO 22006KT 9SM SCT033 26/17 A2993 RMK AO2

More Conditions Fewer Conditions

10-Day Weather Forecast

Almanac

Astronomy

Mar. 31, 2015 Rise Set
Actual Time
Civil Twilight
Nautical Twilight
Astronomical Twilight
Moon
Length of Visible Light
Length of Day
Tomorrow will be .
, % of the Moon is Illuminated

Today's Extremes

State Highs State Lows

Community

WunderPhotos

Upload Photos

1,809,853 photos uploaded!

WunderBlogs® & News

Nearby

Air Quality

  Air Quality AQ Index Pollutant
Not available.

Snow Depth

Station Depth Elevation

Earthquake Activity

City Distance Mag. Time & Date
Minimum magnitude displayed is 2.5.

Coastal Water Temperatures

Place Temperature

Stations

Nearby Weather Stations

Station Location Temp. Windchill Dew Point Humidity Wind Precip. Elev Updated Type